createdAt,value
2018-02-06T00:02:15.707Z,29.08
2018-02-06T00:04:44.307Z,26.25
2018-02-06T00:07:13.822Z,28.20
2018-02-06T00:09:42.757Z,32.67
2018-02-06T00:12:11.022Z,31.12
2018-02-06T00:14:39.341Z,31.48
2018-02-06T00:17:07.718Z,31.23
2018-02-06T00:19:35.961Z,36.63
2018-02-06T00:22:04.113Z,39.47
2018-02-06T00:24:32.266Z,29.40
2018-02-06T00:27:00.507Z,26.52
2018-02-06T00:29:28.810Z,29.17
2018-02-06T00:31:56.990Z,32.33
2018-02-06T00:34:25.283Z,26.62
2018-02-06T00:36:54.450Z,31.62
2018-02-06T00:39:22.703Z,30.83
2018-02-06T00:41:50.790Z,28.33
2018-02-06T00:44:19.197Z,30.05
2018-02-06T00:46:47.489Z,34.13
2018-02-06T00:49:15.645Z,29.95
2018-02-06T00:51:43.872Z,27.87
2018-02-06T00:54:12.901Z,29.12
2018-02-06T00:56:41.105Z,26.27
2018-02-06T00:59:09.593Z,29.95
2018-02-06T01:01:37.793Z,24.52
2018-02-06T01:04:05.967Z,27.60
2018-02-06T01:06:34.073Z,35.40
2018-02-06T01:09:02.159Z,29.80
2018-02-06T01:11:30.254Z,27.33
2018-02-06T01:13:58.540Z,33.03
2018-02-06T01:16:26.640Z,31.30
2018-02-06T01:18:54.643Z,25.95
2018-02-06T01:21:22.835Z,29.25
2018-02-06T01:23:51.037Z,33.33
2018-02-06T01:26:19.307Z,32.00
2018-02-06T01:28:47.497Z,39.72
2018-02-06T01:31:15.676Z,30.40
2018-02-06T01:33:44.012Z,32.05
2018-02-06T01:36:12.207Z,30.62
2018-02-06T01:38:40.500Z,24.65
2018-02-06T01:41:08.680Z,28.52
2018-02-06T01:43:36.878Z,27.02
2018-02-06T01:46:04.977Z,27.73
2018-02-06T01:48:33.894Z,28.50
2018-02-06T01:51:02.068Z,28.65
2018-02-06T01:53:30.368Z,26.83
2018-02-06T01:55:58.560Z,33.55
2018-02-06T01:58:26.756Z,28.95
2018-02-06T02:00:54.955Z,28.70
2018-02-06T02:03:22.954Z,29.67
2018-02-06T02:05:51.243Z,30.60
2018-02-06T02:08:19.554Z,34.15
2018-02-06T02:10:47.978Z,28.90
2018-02-06T02:13:16.119Z,28.62
2018-02-06T02:15:44.493Z,30.83
2018-02-06T02:18:13.857Z,28.92
2018-02-06T02:20:42.447Z,34.88
2018-02-06T02:23:10.641Z,28.45
2018-02-06T02:25:38.851Z,28.52
2018-02-06T02:28:07.036Z,29.83
2018-02-06T02:30:35.221Z,34.10
2018-02-06T02:33:03.431Z,30.95
2018-02-06T02:35:31.613Z,29.63
2018-02-06T02:37:59.921Z,31.87
2018-02-06T02:40:28.137Z,32.40
2018-02-06T04:38:55.646Z,31.08
2018-02-06T04:41:23.956Z,26.95
2018-02-06T04:43:52.108Z,29.27
2018-02-06T04:46:20.245Z,24.65
2018-02-06T04:48:48.383Z,24.23
2018-02-06T04:51:16.685Z,26.05
2018-02-06T04:53:44.887Z,31.80
2018-02-06T04:56:13.098Z,31.45
2018-02-06T04:58:41.256Z,28.42
2018-02-06T05:01:09.392Z,29.48
2018-02-06T05:03:37.664Z,28.15
2018-02-06T05:06:05.956Z,27.37
2018-02-06T05:08:34.149Z,27.30
2018-02-06T05:11:02.345Z,33.13
2018-02-06T05:13:30.334Z,28.98
2018-02-06T05:15:58.737Z,31.73
2018-02-06T05:18:27.155Z,24.85
2018-02-06T05:20:55.547Z,30.90
2018-02-06T05:23:23.818Z,25.00
2018-02-06T05:25:52.035Z,27.15
2018-02-06T05:28:20.205Z,26.67
2018-02-06T05:30:48.519Z,27.55
2018-02-06T05:33:16.809Z,30.88
2018-02-06T05:35:45.102Z,25.75
2018-02-06T05:38:13.290Z,27.35
2018-02-06T05:40:41.658Z,29.15
2018-02-06T05:43:09.792Z,25.73
2018-02-06T05:45:38.038Z,26.15
2018-02-06T05:48:06.191Z,26.40
2018-02-06T05:50:34.374Z,27.48
2018-02-06T05:53:02.601Z,24.67
2018-02-06T05:55:30.852Z,29.33
2018-02-06T05:57:59.269Z,23.83
2018-02-06T06:00:27.454Z,25.52
2018-02-06T06:02:56.482Z,31.23
2018-02-06T06:05:24.667Z,28.60
2018-02-06T06:07:52.854Z,29.52
2018-02-06T06:10:20.958Z,26.75
2018-02-06T06:12:49.329Z,37.00
2018-02-06T06:15:17.346Z,25.52
2018-02-06T06:17:45.534Z,27.20
2018-02-06T06:20:13.625Z,27.45
2018-02-06T06:22:41.815Z,26.58
2018-02-06T06:25:10.007Z,23.60
2018-02-06T06:27:38.314Z,26.95
2018-02-06T06:30:06.278Z,29.08
2018-02-06T06:32:34.604Z,31.58
2018-02-06T06:35:02.927Z,26.75
2018-02-06T06:37:31.156Z,30.95
2018-02-06T06:39:59.498Z,25.27
2018-02-06T06:42:27.979Z,24.50
2018-02-06T06:44:56.116Z,23.92
2018-02-06T06:47:24.216Z,26.95
2018-02-06T06:49:52.479Z,23.23
2018-02-06T06:52:20.770Z,25.20
2018-02-06T06:54:48.858Z,26.42
2018-02-06T06:57:17.058Z,25.12
2018-02-06T06:59:45.158Z,23.85
2018-02-06T07:02:13.453Z,25.62
2018-02-06T07:04:41.550Z,27.00
2018-02-06T07:07:09.646Z,25.23
2018-02-06T07:09:37.719Z,27.62
2018-02-06T07:12:05.916Z,30.90
2018-02-06T07:14:34.219Z,25.45
2018-02-06T07:17:02.717Z,27.00
2018-02-06T07:19:30.917Z,25.83
2018-02-06T07:21:59.415Z,26.25
2018-02-06T07:24:27.673Z,28.12
2018-02-06T07:26:56.006Z,25.75
2018-02-06T07:29:24.407Z,22.55
2018-02-06T07:31:52.692Z,26.00
2018-02-06T07:34:20.790Z,26.60
2018-02-06T07:36:49.083Z,27.90
2018-02-06T07:39:17.289Z,28.10
2018-02-06T07:41:45.465Z,26.48
2018-02-06T07:44:13.574Z,27.77
2018-02-06T07:46:41.759Z,25.60
2018-02-06T07:49:09.965Z,28.25
2018-02-06T07:51:38.059Z,33.30
2018-02-06T07:54:06.361Z,29.75
2018-02-06T07:56:34.738Z,25.27
2018-02-06T07:59:03.057Z,21.83
2018-02-06T08:01:31.239Z,24.95
2018-02-06T08:03:59.525Z,22.50
2018-02-06T08:06:27.830Z,23.10
2018-02-06T08:08:56.897Z,28.23
2018-02-06T08:11:25.047Z,29.25
2018-02-06T08:13:53.330Z,25.95
2018-02-06T08:16:21.424Z,28.30
2018-02-06T08:18:49.616Z,27.08
2018-02-06T08:21:17.800Z,27.62
2018-02-06T08:23:46.005Z,28.92
2018-02-06T08:26:14.096Z,28.17
2018-02-06T08:28:42.332Z,31.40
2018-02-06T08:31:10.381Z,28.10
2018-02-06T08:33:38.609Z,25.37
2018-02-06T08:36:06.979Z,27.80
2018-02-06T08:38:35.387Z,22.40
2018-02-06T08:41:03.476Z,23.58
2018-02-06T08:43:31.873Z,21.87
2018-02-06T08:46:00.175Z,25.80
2018-02-06T08:48:28.467Z,24.73
2018-02-06T08:50:56.648Z,30.67
2018-02-06T08:53:24.940Z,23.08
2018-02-06T08:55:52.979Z,24.23
2018-02-06T08:58:21.232Z,22.92
2018-02-06T09:00:49.325Z,19.33
2018-02-06T09:03:17.530Z,21.48
2018-02-06T09:05:45.534Z,21.05
2018-02-06T09:08:13.817Z,22.83
2018-02-06T09:10:41.908Z,23.48
2018-02-06T09:13:10.192Z,25.15
2018-02-06T09:15:38.398Z,23.52
2018-02-06T09:18:06.798Z,21.65
2018-02-06T09:20:35.097Z,20.35
2018-02-06T09:23:03.195Z,22.10
2018-02-06T09:25:31.116Z,22.17
2018-02-06T09:27:59.259Z,22.23
2018-02-06T09:30:27.460Z,20.50
2018-02-06T09:32:55.659Z,24.70
2018-02-06T09:35:23.739Z,21.85
2018-02-06T09:37:52.039Z,24.60
2018-02-06T09:40:20.139Z,24.37
2018-02-06T09:42:48.339Z,22.92
2018-02-06T09:45:16.519Z,29.50
2018-02-06T09:47:44.730Z,20.05
2018-02-06T09:50:13.020Z,22.40
2018-02-06T09:52:41.203Z,24.73
2018-02-06T09:55:09.304Z,24.77
2018-02-06T09:57:37.483Z,22.40
2018-02-06T10:00:05.792Z,24.83
2018-02-06T10:02:33.881Z,20.95
2018-02-06T10:05:03.028Z,21.62
2018-02-06T10:07:31.161Z,22.27
2018-02-06T10:09:59.283Z,22.83
2018-02-06T10:12:27.483Z,27.35
2018-02-06T10:14:55.684Z,27.45
2018-02-06T10:17:25.505Z,26.87
2018-02-06T10:19:53.599Z,25.45
2018-02-06T10:22:21.684Z,23.17
2018-02-06T10:24:49.874Z,27.05
2018-02-06T10:27:18.065Z,26.23
2018-02-06T10:29:46.158Z,26.08
2018-02-06T10:32:14.285Z,21.10
2018-02-06T10:34:42.478Z,21.90
2018-02-06T10:37:10.538Z,20.33
2018-02-06T10:39:38.842Z,18.67
2018-02-06T10:42:07.142Z,24.10
2018-02-06T10:44:35.316Z,27.98
2018-02-06T10:47:03.456Z,18.35
2018-02-06T10:49:31.836Z,21.67
2018-02-06T10:52:00.936Z,25.65
2018-02-06T10:54:29.342Z,25.67
2018-02-06T10:56:57.538Z,25.20
2018-02-06T10:59:25.941Z,34.80
2018-02-06T11:01:53.979Z,26.27
2018-02-06T11:04:22.944Z,29.23
2018-02-06T11:06:51.079Z,28.20
2018-02-06T11:09:19.476Z,23.25
2018-02-06T11:11:47.740Z,27.77
2018-02-06T11:14:16.229Z,25.12
2018-02-06T11:16:44.424Z,29.45
2018-02-06T11:19:12.655Z,29.55
2018-02-06T11:21:40.915Z,33.80
2018-02-06T11:24:09.114Z,27.27
2018-02-06T11:26:37.420Z,28.15
2018-02-06T11:29:05.837Z,26.85
2018-02-06T11:31:34.034Z,24.35
2018-02-06T11:34:02.424Z,27.30
2018-02-06T11:36:30.656Z,23.10
2018-02-06T11:38:58.898Z,23.42
2018-02-06T11:41:26.969Z,27.05
2018-02-06T11:43:55.374Z,25.90
2018-02-06T11:46:23.780Z,23.30
2018-02-06T11:48:52.040Z,31.02
2018-02-06T11:51:20.304Z,26.95
2018-02-06T11:53:48.560Z,29.17
2018-02-06T11:56:16.757Z,31.58
2018-02-06T11:58:44.955Z,28.20
2018-02-06T12:01:13.859Z,25.75
2018-02-06T12:03:41.957Z,22.08
2018-02-06T12:06:09.982Z,25.92
2018-02-06T12:08:38.203Z,21.90
2018-02-06T12:11:06.429Z,24.77
2018-02-06T12:13:34.641Z,24.50
2018-02-06T12:16:02.933Z,22.13
2018-02-06T12:18:31.026Z,30.35
2018-02-06T12:20:59.486Z,26.98
2018-02-06T12:23:28.025Z,65.40
2018-02-06T12:25:56.322Z,29.27
2018-02-06T12:28:24.470Z,23.85
2018-02-06T12:30:52.707Z,25.25
2018-02-06T12:33:20.875Z,20.50
2018-02-06T12:35:49.201Z,22.50
2018-02-06T12:38:17.178Z,25.65
2018-02-06T12:40:45.578Z,15.05
2018-02-06T12:43:13.683Z,20.25
2018-02-06T12:45:42.061Z,13.43
2018-02-06T12:48:10.397Z,16.48
2018-02-06T12:50:38.567Z,16.58
2018-02-06T12:53:06.693Z,16.05
2018-02-06T12:55:34.911Z,19.58
2018-02-06T12:58:03.082Z,18.77
2018-02-06T13:00:31.273Z,15.02
2018-02-06T13:02:59.413Z,18.10
2018-02-06T13:05:27.620Z,15.65
2018-02-06T13:07:55.679Z,14.98
2018-02-06T13:10:24.022Z,15.68
2018-02-06T13:12:52.225Z,16.70
2018-02-06T13:15:20.413Z,19.80
2018-02-06T13:17:48.503Z,17.05
2018-02-06T13:20:16.581Z,14.07
2018-02-06T13:22:45.402Z,14.38
2018-02-06T13:25:13.596Z,14.82
2018-02-06T13:27:41.776Z,20.62
2018-02-06T13:30:10.018Z,11.90
2018-02-06T13:32:38.257Z,13.88
2018-02-06T13:35:06.576Z,13.45
2018-02-06T13:37:35.516Z,17.60
2018-02-06T13:40:03.674Z,16.37
2018-02-06T13:42:31.840Z,14.38
2018-02-06T13:45:00.065Z,17.92
2018-02-06T13:47:28.308Z,14.13
2018-02-06T13:49:56.559Z,15.18
2018-02-06T13:52:24.676Z,17.95
2018-02-06T13:54:52.856Z,17.52
2018-02-06T13:57:21.136Z,13.85
2018-02-06T13:59:49.557Z,16.23
2018-02-06T14:02:17.698Z,15.57
2018-02-06T14:04:45.734Z,15.30
2018-02-06T14:07:13.864Z,16.85
2018-02-06T14:09:42.156Z,18.27
2018-02-06T14:12:10.301Z,13.73
2018-02-06T14:14:38.500Z,16.90
2018-02-06T14:17:06.803Z,19.37
2018-02-06T14:19:34.935Z,19.20
2018-02-06T14:22:03.096Z,18.00
2018-02-06T14:24:31.296Z,16.48
2018-02-06T14:26:59.483Z,18.40
2018-02-06T14:29:28.594Z,18.40
2018-02-06T14:31:56.698Z,16.75
2018-02-06T14:34:24.878Z,16.90
2018-02-06T14:36:53.076Z,18.08
2018-02-06T14:39:21.318Z,15.63
2018-02-06T14:41:50.674Z,18.12
2018-02-06T14:44:19.023Z,15.77
2018-02-06T14:46:47.219Z,13.07
2018-02-06T14:49:15.577Z,17.00
2018-02-06T14:51:43.758Z,17.52
2018-02-06T14:54:11.967Z,13.57
2018-02-06T14:56:40.055Z,19.12
2018-02-06T14:59:08.203Z,15.77
2018-02-06T15:01:36.335Z,14.65
2018-02-06T15:04:04.529Z,13.38
2018-02-06T15:06:32.722Z,14.40
2018-02-06T15:09:00.936Z,16.65
2018-02-06T15:11:29.072Z,15.85
2018-02-06T15:13:57.219Z,12.93
2018-02-06T15:16:25.414Z,18.20
2018-02-06T15:18:53.694Z,15.00
2018-02-06T15:21:21.799Z,15.38
2018-02-06T15:23:50.099Z,13.70
2018-02-06T15:26:18.587Z,13.38
2018-02-06T15:28:46.696Z,18.42
2018-02-06T15:31:14.819Z,19.33
2018-02-06T15:33:42.839Z,13.48
2018-02-06T15:36:11.065Z,15.05
2018-02-06T15:38:39.369Z,14.48
2018-02-06T15:41:07.569Z,15.00
2018-02-06T15:43:35.749Z,15.70
2018-02-06T15:46:03.957Z,17.37
2018-02-06T15:48:32.037Z,13.23
2018-02-06T15:51:00.330Z,13.02
2018-02-06T15:53:28.642Z,15.90
2018-02-06T15:55:56.937Z,16.33
2018-02-06T15:58:25.215Z,14.43
2018-02-06T16:00:53.523Z,15.05
2018-02-06T16:03:21.915Z,12.55
2018-02-06T16:05:50.214Z,15.52
2018-02-06T16:08:18.316Z,13.48
2018-02-06T16:10:46.611Z,17.90
2018-02-06T16:13:14.730Z,15.13
2018-02-06T16:15:42.928Z,17.20
2018-02-06T16:18:11.291Z,18.90
2018-02-06T16:20:39.476Z,14.95
2018-02-06T16:23:07.676Z,17.77
2018-02-06T16:25:35.876Z,15.98
2018-02-06T16:28:04.060Z,16.50
2018-02-06T16:30:32.166Z,20.37
2018-02-06T16:33:00.567Z,14.15
2018-02-06T16:35:28.867Z,18.27
2018-02-06T16:37:57.156Z,16.20
2018-02-06T16:40:25.460Z,18.98
2018-02-06T16:42:53.840Z,15.70
2018-02-06T16:45:22.042Z,14.38
2018-02-06T16:47:50.339Z,18.95
2018-02-06T16:50:18.547Z,17.37
2018-02-06T16:52:46.718Z,15.82
2018-02-06T16:55:14.824Z,24.17
2018-02-06T16:57:42.844Z,17.27
2018-02-06T17:00:10.904Z,13.88
2018-02-06T17:02:39.206Z,16.40
2018-02-06T17:05:07.297Z,13.80
2018-02-06T17:07:35.389Z,14.93
2018-02-06T17:10:03.571Z,15.55
2018-02-06T17:12:31.667Z,19.67
2018-02-06T17:14:59.998Z,15.73
2018-02-06T17:17:28.059Z,14.75
2018-02-06T17:19:56.140Z,16.23
2018-02-06T17:22:24.239Z,19.75
2018-02-06T17:24:52.317Z,18.25
2018-02-06T17:27:20.419Z,20.83
2018-02-06T17:29:48.520Z,19.02
2018-02-06T17:32:16.708Z,13.18
2018-02-06T17:34:44.801Z,24.33
2018-02-06T17:37:12.900Z,16.40
2018-02-06T17:39:40.980Z,16.30
2018-02-06T17:42:08.981Z,16.23
2018-02-06T17:44:36.921Z,15.07
2018-02-06T17:47:05.362Z,15.60
2018-02-06T17:49:33.461Z,17.90
2018-02-06T17:52:01.662Z,21.87
2018-02-06T17:54:29.741Z,16.55
2018-02-06T17:56:57.867Z,16.65
2018-02-06T17:59:26.042Z,16.55
2018-02-06T18:01:54.223Z,16.10
2018-02-06T18:04:22.434Z,16.12
2018-02-06T18:06:50.603Z,17.77
2018-02-06T18:09:18.707Z,23.35
2018-02-06T18:11:46.797Z,27.27
2018-02-06T18:14:15.002Z,23.87
2018-02-06T18:16:43.092Z,31.35
2018-02-06T18:19:11.292Z,58.90
2018-02-06T18:21:39.485Z,116.07
2018-02-06T18:24:07.665Z,32.35
2018-02-06T18:26:35.793Z,23.77
2018-02-06T18:29:03.963Z,22.45
2018-02-06T18:31:32.173Z,20.52
2018-02-06T18:34:00.344Z,22.67
2018-02-06T18:36:28.544Z,26.05
2018-02-06T18:38:56.623Z,20.55
2018-02-06T18:41:24.824Z,30.33
2018-02-06T18:43:53.025Z,28.05
2018-02-06T18:46:21.224Z,32.90
2018-02-06T18:48:49.403Z,25.20
2018-02-06T18:51:17.503Z,38.47
2018-02-06T18:53:45.583Z,21.90
2018-02-06T18:56:13.784Z,29.25
2018-02-06T18:58:41.984Z,24.37
2018-02-06T19:01:10.063Z,23.00
2018-02-06T19:03:39.503Z,36.40
2018-02-06T19:06:07.695Z,53.25
2018-02-06T19:08:35.832Z,68.05
2018-02-06T19:11:03.866Z,51.22
2018-02-06T19:13:32.064Z,34.13
2018-02-06T19:16:00.167Z,30.27
2018-02-06T19:18:28.253Z,19.58
2018-02-06T19:20:56.347Z,38.38
2018-02-06T19:23:24.445Z,30.73
2018-02-06T19:25:52.625Z,25.10
2018-02-06T19:28:20.833Z,26.33
2018-02-06T19:30:49.018Z,21.40
2018-02-06T19:33:17.115Z,31.85
2018-02-06T19:35:45.295Z,38.10
2018-02-06T19:38:13.596Z,39.10
2018-02-06T19:40:41.695Z,35.08
2018-02-06T19:43:09.989Z,43.38
2018-02-06T19:45:38.089Z,51.00
2018-02-06T19:48:06.169Z,42.83
2018-02-06T19:50:34.369Z,63.75
2018-02-06T19:53:02.470Z,55.58
2018-02-06T19:55:30.511Z,47.38
2018-02-06T19:57:58.749Z,40.30
2018-02-06T20:00:26.850Z,40.33
2018-02-06T20:02:55.252Z,29.45
2018-02-06T20:05:23.328Z,30.10
2018-02-06T20:07:51.529Z,36.58
2018-02-06T20:10:19.629Z,30.70
2018-02-06T20:12:47.812Z,25.92
2018-02-06T20:15:16.209Z,28.10
2018-02-06T20:17:44.408Z,27.95
2018-02-06T20:20:12.390Z,25.23
2018-02-06T20:22:40.588Z,27.05
2018-02-06T20:25:08.788Z,30.40
2018-02-06T20:27:36.888Z,26.30
2018-02-06T20:30:04.970Z,26.20
2018-02-06T20:32:33.170Z,25.23
2018-02-06T20:35:01.463Z,29.33
2018-02-06T20:37:29.757Z,25.27
2018-02-06T20:39:57.806Z,21.12
2018-02-06T20:42:26.039Z,25.48
2018-02-06T20:44:54.137Z,25.73
2018-02-06T20:47:22.338Z,22.85
2018-02-06T20:49:50.429Z,27.60
2018-02-06T20:52:18.524Z,27.83
2018-02-06T20:54:46.630Z,28.80
2018-02-06T20:57:14.849Z,26.52
2018-02-06T20:59:43.210Z,22.17
2018-02-06T21:02:11.497Z,35.00
2018-02-06T21:04:40.108Z,25.35
2018-02-06T21:07:08.199Z,21.58
2018-02-06T21:09:36.379Z,33.83
2018-02-06T21:12:04.479Z,28.50
2018-02-06T21:14:32.581Z,23.55
2018-02-06T21:17:00.718Z,31.10
2018-02-06T21:19:28.860Z,32.20
2018-02-06T21:21:56.979Z,27.30
2018-02-06T21:24:25.342Z,36.33
2018-02-06T21:26:53.436Z,29.85
2018-02-06T21:29:21.655Z,27.33
2018-02-06T21:31:49.861Z,29.63
2018-02-06T21:34:18.021Z,30.30
2018-02-06T21:36:46.208Z,26.98
2018-02-06T21:39:14.510Z,28.42
2018-02-06T21:41:42.762Z,35.97
2018-02-06T21:44:10.995Z,31.30
2018-02-06T21:46:39.194Z,33.38
2018-02-06T21:49:07.395Z,33.38
2018-02-06T21:51:35.595Z,32.70
2018-02-06T21:54:03.779Z,36.00
2018-02-06T21:56:31.907Z,28.67
2018-02-06T21:58:59.957Z,27.17
2018-02-06T22:01:28.059Z,25.00
2018-02-06T22:03:56.266Z,29.80
2018-02-06T22:06:24.286Z,27.62
2018-02-06T22:08:52.376Z,29.00
2018-02-06T22:11:20.666Z,28.98
2018-02-06T22:13:48.930Z,28.05
2018-02-06T22:16:17.115Z,28.65
2018-02-06T22:18:45.306Z,29.75
2018-02-06T22:21:13.301Z,28.67
2018-02-06T22:23:41.512Z,24.65
2018-02-06T22:26:09.699Z,28.70
2018-02-06T22:28:37.898Z,20.58
2018-02-06T22:31:06.016Z,21.10
2018-02-06T22:33:34.387Z,21.30
2018-02-06T22:36:02.485Z,24.25
2018-02-06T22:38:30.663Z,25.92
2018-02-06T22:40:59.358Z,22.23
2018-02-06T22:43:27.567Z,27.65
2018-02-06T22:45:55.764Z,26.60
2018-02-06T22:48:23.872Z,24.37
2018-02-06T22:50:51.879Z,24.80
2018-02-06T22:53:20.051Z,21.73
2018-02-06T22:55:48.135Z,27.33
2018-02-06T22:58:16.372Z,24.92
2018-02-06T23:00:44.730Z,30.05
2018-02-06T23:03:13.246Z,31.10
2018-02-06T23:05:41.384Z,27.92
2018-02-06T23:08:09.828Z,26.02
2018-02-06T23:10:38.218Z,25.90
2018-02-06T23:13:06.605Z,27.25
2018-02-06T23:15:34.710Z,26.23
2018-02-06T23:18:04.032Z,22.83
2018-02-06T23:20:32.157Z,23.52
2018-02-06T23:23:00.331Z,20.15
2018-02-06T23:25:28.538Z,25.10
2018-02-06T23:27:56.576Z,21.58
2018-02-06T23:30:24.790Z,24.75
2018-02-06T23:32:53.130Z,26.15
2018-02-06T23:35:21.481Z,26.77
2018-02-06T23:37:49.634Z,28.42
2018-02-06T23:40:17.935Z,28.77
2018-02-06T23:42:46.289Z,24.48
2018-02-06T23:45:14.506Z,28.25
2018-02-06T23:47:42.875Z,27.45
2018-02-06T23:50:11.277Z,28.23
2018-02-06T23:52:39.666Z,24.25
2018-02-06T23:55:08.565Z,24.30
2018-02-06T23:57:36.757Z,22.58
